Cornwall, Illinois
Current Conditions -  °F | °C
As of 11:52 AM on Monday 26 Jan 2015 (Local Time) from KMLI Reporting Station
Overcast Overcast  
Wind Chill: 18°   Ceiling: 2900
Heat Index: 26°   Visibility: 9mi
Dew Point: 22°   Wind: 7mph
Humidity: 84%   Direction: 160°SSE
Pressure: 29.86"   Gusts: NA
Location:  41.4097°N, 90.0293°W
Report Text: KMLI 261752Z 16006KT 9SM OVC029 M03/M06 A2986 RMK AO2 SNE12 SLP119 P0000 60007 T10331056 11033 21078 58023
Loading
Personal Weather Stations






























Interactive Weather Map New forecast layout! Learn more

10-Day Weather Forecast

Advertisements
Track Severe Weather on mobile